Flight Track Log - Related Links

Times and Time Zones

All times are in EDT time to prevent confusion due to time zone crossing. See the UAL109 flight status page for this flight to view local times or setup timezone preferences in your user account.

Time Position Orientation Groundspeed Altitude Reporting Facility
EDT Latitude Longitude Course Direction KTS MPH feet Rate Location/Type
Sat 07:07:58 AM 55.9441 -3.3812 239° Southwest 168 193 300  Level FlightAware ADS-B
Sat 07:08:13 AM 55.9381 -3.3994 241° Southwest 165 190 1,000 3,400 Climbing FlightAware ADS-B
Sat 07:08:28 AM 55.9326 -3.4162 238° Southwest 157 181 2,000 3,400 Climbing FlightAware ADS-B
Sat 07:08:43 AM 55.9270 -3.4324 238° Southwest 155 178 2,700 2,200 Climbing FlightAware ADS-B
Sat 07:08:58 AM 55.9213 -3.4483 239° Southwest 159 183 3,100 1,600 Climbing FlightAware ADS-B
Sat 07:09:13 AM 55.9166 -3.4617 239° Southwest 166 191 3,500 1,200 Climbing FlightAware ADS-B
Sat 07:09:43 AM 55.9022 -3.5043 244° Southwest 200 230 4,000 1,245 Climbing FlightAware ADS-B
Sat 07:10:06 AM 55.8984 -3.5446 263° West 226 260 4,600 1,950 Climbing FlightAware ADS-B (EGPG)
Sat 07:10:23 AM 55.8952 -3.5745 258° West 236 272 5,300 2,108 Climbing FlightAware ADS-B
Sat 07:10:43 AM 55.8904 -3.6155 259° West 251 289 5,900 1,200 Climbing FlightAware ADS-B (EGPG)
Sat 07:11:03 AM 55.8863 -3.6552 260° West 257 296 6,100 343 Climbing FlightAware ADS-B
Sat 07:11:18 AM 55.8831 -3.6882 261° West 250 288 6,100 682 Level FlightAware ADS-B
Sat 07:11:47 AM 55.8768 -3.7527 260° West 290 334 6,600 1,600 Climbing FlightAware ADS-B
Sat 07:12:03 AM 55.8725 -3.7908 259° West 297 342 7,300 2,063 Climbing FlightAware ADS-B (EGPG)
Sat 07:12:19 AM 55.8685 -3.8274 259° West 302 348 7,700 1,235 Climbing FlightAware ADS-B
Sat 07:12:37 AM 55.8646 -3.8660 260° West 322 371 8,000 1,385 Climbing FlightAware ADS-B
Sat 07:12:58 AM 55.8584 -3.9257 260° West 341 392 8,600 2,449 Climbing FlightAware ADS-B
Sat 07:13:26 AM 55.8483 -4.0037 254° West 345 397 10,000 2,800 Climbing FlightAware ADS-B (EGPG)
Sat 07:13:43 AM 55.8403 -4.0541 255° West 349 402 10,700 2,250 Climbing FlightAware ADS-B
Sat 07:14:22 AM 55.8241 -4.1642 257° West 359 413 12,100 2,294 Climbing FlightAware ADS-B (EGPF / GLA)
Sat 07:14:51 AM 55.8119 -4.2502 256° West 364 419 13,300 2,400 Climbing FlightAware ADS-B (EGPF / GLA)
Sat 07:15:22 AM 55.7984 -4.3379 255° West 369 425 14,500 2,459 Climbing FlightAware ADS-B (EGPF / GLA)
Sat 07:15:52 AM 55.7846 -4.4254 255° West 371 427 15,800 2,847 Climbing FlightAware ADS-B (EGPF / GLA)
Sat 07:16:21 AM 55.7718 -4.5068 255° West 363 418 17,300 2,864 Climbing FlightAware ADS-B (EGPF / GLA)
Sat 07:16:36 AM 55.7642 -4.5542 254° West 363 418 17,900 1,935 Climbing FlightAware ADS-B
Sat 07:16:52 AM 55.7582 -4.5931 255° West 366 421 18,300 1,733 Climbing FlightAware ADS-B (EGPF / GLA)
Sat 07:17:21 AM 55.7444 -4.6797 255° West 371 427 19,200 2,087 Climbing FlightAware ADS-B (EGPF / GLA)
Sat 07:17:38 AM 55.7372 -4.7250 254° West 375 432 19,900 1,932 Climbing FlightAware ADS-B
Sat 07:18:20 AM 55.7158 -4.8594 254° West 385 443 21,100 1,750 Climbing FlightAware ADS-B
Sat 07:18:50 AM 55.7010 -4.9499 255° West 387 445 22,000 1,900 Climbing FlightAware ADS-B
Sat 07:19:20 AM 55.6859 -5.0432 254° West 392 451 23,000 2,040 Climbing FlightAware ADS-B
Sat 07:19:40 AM 55.6756 -5.1061 254° West 393 452 23,700 1,680 Climbing FlightAware ADS-B
Sat 07:20:10 AM 55.6609 -5.1965 254° West 398 458 24,400 1,500 Climbing FlightAware ADS-B
Sat 07:20:40 AM 55.6451 -5.2930 254° West 401 461 25,200 1,600 Climbing FlightAware ADS-B (KHWO)
Sat 07:21:10 AM 55.6295 -5.3867 254° West 403 464 26,000 1,452 Climbing FlightAware ADS-B (EGPG)
Sat 07:21:42 AM 55.6126 -5.4875 254° West 408 470 26,700 1,309 Climbing FlightAware ADS-B
Sat 07:22:05 AM 55.6006 -5.5599 254° West 413 475 27,200 1,294 Climbing FlightAware ADS-B
Sat 07:22:33 AM 55.5850 -5.6525 255° West 414 476 27,800 1,333 Climbing FlightAware ADS-B (KHWO)
Sat 07:22:50 AM 55.5759 -5.7064 255° West 414 476 28,200 1,404 Climbing FlightAware ADS-B
Sat 07:23:20 AM 55.5606 -5.7956 253° West 419 482 28,900 1,333 Climbing FlightAware ADS-B
Sat 07:23:44 AM 55.5457 -5.8837 253° West 420 483 29,400 1,227 Climbing FlightAware ADS-B
Sat 07:24:04 AM 55.5350 -5.9460 253° West 421 484 29,800 1,368 Climbing FlightAware ADS-B
Sat 07:24:41 AM 55.5142 -6.0662 253° West 418 481 30,700 1,472 Climbing FlightAware ADS-B
Sat 07:24:57 AM 55.5050 -6.1201 253° West 417 480 31,100 1,300 Climbing FlightAware ADS-B
Sat 07:25:41 AM 55.4799 -6.2641 253° West 413 475 32,000 900 Climbing FlightAware ADS-B
Sat 07:25:57 AM 55.4710 -6.3146 254° West 409 471 32,000 158 Level FlightAware ADS-B (KHWO)
Sat 07:26:19 AM 55.4592 -6.3824 253° West 413 475 32,100 143 Climbing FlightAware ADS-B
Sat 07:26:39 AM 55.4484 -6.4441 253° West 417 480 32,100  Level FlightAware ADS-B
Sat 07:26:58 AM 55.4365 -6.5114 254° West 416 479 32,100  Level FlightAware ADS-B (KHWO)
Sat 07:27:31 AM 55.4178 -6.6164 254° West 417 480 32,100  Level FlightAware ADS-B
Sat 07:28:04 AM 55.3987 -6.7229 253° West 422 486 32,100  Level FlightAware ADS-B (EGPG)
Sat 07:28:42 AM 55.3771 -6.8429 252° West 423 487 32,100 -86 Level FlightAware ADS-B
Sat 07:29:14 AM 55.3740 -6.9472 252° West 424 488 32,000  Descending FlightAware UK
Sat 07:29:23 AM 55.3651 -6.9097 252° West 424 488 32,100 140 Climbing FlightAware ADS-B
Sat 07:29:57 AM 55.3311 -7.0970 252° West 426 490 32,100  Level FlightAware ADS-B
Sat 07:30:28 AM 55.3131 -7.1956 252° West 427 491 32,100  Level FlightAware ADS-B
Sat 07:30:58 AM 55.2949 -7.2942 252° West 428 493 32,100  Level FlightAware ADS-B
Sat 07:31:30 AM 55.2755 -7.3996 252° West 429 494 32,100  Level FlightAware ADS-B (KHWO)
Sat 07:32:05 AM 55.2539 -7.5160 252° West 430 495 32,100  Level FlightAware ADS-B
Sat 07:32:35 AM 55.2368 -7.6147 255° West 427 491 32,100  Level FlightAware ADS-B
Sat 07:33:13 AM 55.2202 -7.7318 256° West 424 488 32,100  Level FlightAware ADS-B
Sat 07:33:44 AM 55.2046 -7.8436 256° West 424 488 32,100  Level FlightAware ADS-B (KHWO)
Sat 07:34:16 AM 55.1896 -7.9505 256° West 424 488 32,100  Level FlightAware ADS-B (KHWO)
Sat 07:34:51 AM 55.1733 -8.0660 257° West 423 487 32,100  Level FlightAware ADS-B
Sat 07:35:27 AM 55.1563 -8.1850 256° West 425 489 32,100  Level FlightAware ADS-B (EGPH / EDI)
Sat 07:35:58 AM 55.1414 -8.2885 257° West 423 487 32,100  Level FlightAware ADS-B (KHWO)
Sat 07:36:31 AM 55.1254 -8.3986 257° West 423 487 32,100  Level FlightAware ADS-B
Sat 07:37:10 AM 55.1067 -8.5276 257° West 422 486 32,100  Level FlightAware ADS-B
Sat 07:37:41 AM 55.0916 -8.6308 256° West 424 488 32,100 -79 Level FlightAware ADS-B
Sat 07:38:26 AM 55.0932 -8.7693 256° West 424 488 32,000  Descending FlightAware UK
Sat 07:38:31 AM 55.0676 -8.7944 257° West 422 486 32,100 250 Climbing FlightAware ADS-B
Sat 07:38:50 AM 55.0580 -8.8584 257° West 422 486 32,100  Level FlightAware ADS-B
Sat 07:39:22 AM 55.0432 -8.9578 255° West 424 488 32,100 488 Level FlightAware ADS-B
Sat 07:40:53 AM 55.0001 -9.2433 255° West 413 475 33,100 455 Climbing FlightAware ADS-B
Sat 07:41:34 AM 54.9783 -9.3873 256° West 410 472 33,100  Level FlightAware ADS-B (KHWO)
Sat 07:42:58 AM 54.9366 -9.6580 256° West 413 475 33,100  Level FlightAware ADS-B (KHWO)
Sat 07:43:51 AM 54.9102 -9.8273 256° West 415 478 33,100 -2 Level FlightAware ADS-B (KHWO)
Sat 08:37:49 AM 54.0000 -20.0000 274° West 391 450 33,000 -2 Descending ETMS Enhanced Traffic Management System
Sat 08:38:00 AM 55.3858 -20.5982 270° West  Level Estimated
Sat 08:39:00 AM 55.3856 -20.8038 270° West  Level Estimated
Sat 08:40:00 AM 55.3851 -21.0093 270° West  Level Estimated
Sat 08:41:00 AM 55.3842 -21.2149 270° West  Level Estimated
Sat 08:42:00 AM 55.3829 -21.4204 269° West  Level Estimated
Sat 08:43:00 AM 54.0410 -21.1085 273° West 391 450 33,000  Level FlightAware Transoceanic
Sat 08:44:00 AM 54.0468 -21.2935 273° West 391 450 33,000  Level FlightAware Transoceanic
Sat 08:45:00 AM 54.0524 -21.4785 273° West 391 450 33,000  Level FlightAware Transoceanic
Sat 08:46:00 AM 54.0576 -21.6636 273° West 391 450 33,000  Level FlightAware Transoceanic
Sat 08:47:00 AM 54.0626 -21.8487 273° West 391 450 33,000  Level FlightAware Transoceanic
Sat 08:48:00 AM 54.0673 -22.0338 272° West 391 450 33,000  Level FlightAware Transoceanic
Sat 08:49:00 AM 54.0717 -22.2190 272° West 391 450 33,000  Level FlightAware Transoceanic
Sat 08:50:00 AM 54.0759 -22.4042 272° West 391 450 33,000  Level FlightAware Transoceanic
Sat 08:51:00 AM 54.0797 -22.5895 272° West 391 450 33,000  Level FlightAware Transoceanic
Sat 08:52:00 AM 54.0833 -22.7748 272° West 391 450 33,000  Level FlightAware Transoceanic
Sat 08:53:00 AM 54.0866 -22.9601 272° West 391 450 33,000  Level FlightAware Transoceanic
Sat 08:54:00 AM 54.0896 -23.1455 272° West 391 450 33,000  Level FlightAware Transoceanic
Sat 08:55:00 AM 54.0923 -23.3309 271° West 391 450 33,000  Level FlightAware Transoceanic
Sat 08:56:00 AM 54.0947 -23.5163 271° West 391 450 33,000  Level FlightAware Transoceanic
Sat 08:57:00 AM 54.0968 -23.7017 271° West 391 450 33,000  Level FlightAware Transoceanic
Sat 08:58:00 AM 54.0987 -23.8871 271° West 391 450 33,000  Level FlightAware Transoceanic
Sat 08:59:00 AM 54.1003 -24.0726 271° West 391 450 33,000  Level FlightAware Transoceanic
Sat 09:00:00 AM 54.1015 -24.2581 271° West 391 450 33,000  Level FlightAware Transoceanic
Sat 09:01:00 AM 54.1025 -24.4435 270° West 391 450 33,000  Level FlightAware Transoceanic
Sat 09:02:00 AM 54.1032 -24.6290 270° West 391 450 33,000  Level FlightAware Transoceanic
Sat 09:03:00 AM 54.1037 -24.8145 270° West 391 450 33,000  Level FlightAware Transoceanic
Sat 09:04:00 AM 54.1038 -25.0000 270° West 391 450 33,000  Level FlightAware Transoceanic
Sat 09:05:00 AM 54.1037 -25.1855 270° West 391 450 33,000  Level FlightAware Transoceanic
Sat 09:06:00 AM 54.1032 -25.3710 270° West 391 450 33,000  Level FlightAware Transoceanic
Sat 09:07:00 AM 54.1025 -25.5565 270° West 391 450 33,000  Level FlightAware Transoceanic
Sat 09:08:00 AM 54.1015 -25.7419 269° West 391 450 33,000  Level FlightAware Transoceanic
Sat 09:09:00 AM 54.1003 -25.9274 269° West 391 450 33,000  Level FlightAware Transoceanic
Sat 09:10:00 AM 54.0987 -26.1129 269° West 391 450 33,000  Level FlightAware Transoceanic
Sat 09:11:00 AM 54.0968 -26.2983 269° West 391 450 33,000  Level FlightAware Transoceanic
Sat 09:12:00 AM 54.0947 -26.4837 269° West 391 450 33,000  Level FlightAware Transoceanic
Sat 09:13:00 AM 54.0923 -26.6691 269° West 391 450 33,000  Level FlightAware Transoceanic
Sat 09:14:00 AM 54.0896 -26.8545 268° West 391 450 33,000  Level FlightAware Transoceanic
Sat 09:15:00 AM 54.0866 -27.0399 268° West 391 450 33,000  Level FlightAware Transoceanic
Sat 09:16:00 AM 54.0833 -27.2252 268° West 391 450 33,000  Level FlightAware Transoceanic
Sat 09:17:00 AM 54.0797 -27.4105 268° West 391 450 33,000  Level FlightAware Transoceanic
Sat 09:18:00 AM 54.0759 -27.5958 268° West 391 450 33,000  Level FlightAware Transoceanic
Sat 09:19:00 AM 54.0717 -27.7810 268° West 391 450 33,000  Level FlightAware Transoceanic
Sat 09:20:00 AM 54.0673 -27.9662 268° West 391 450 33,000  Level FlightAware Transoceanic
Sat 09:21:00 AM 54.0626 -28.1513 267° West 391 450 33,000  Level FlightAware Transoceanic
Sat 09:22:00 AM 54.0576 -28.3364 267° West 391 450 33,000  Level FlightAware Transoceanic
Sat 09:23:00 AM 54.0524 -28.5215 267° West 391 450 33,000  Level FlightAware Transoceanic
Sat 09:24:00 AM 54.0468 -28.7065 267° West 391 450 33,000  Level FlightAware Transoceanic
Sat 09:25:00 AM 54.0410 -28.8915 267° West 391 450 33,000  Level FlightAware Transoceanic
Sat 09:26:00 AM 54.0349 -29.0763 267° West 391 450 33,000  Level FlightAware Transoceanic
Sat 09:27:00 AM 54.0285 -29.2612 267° West 391 450 33,000  Level FlightAware Transoceanic
Sat 09:28:00 AM 54.0218 -29.4460 266° West 391 450 33,000  Level FlightAware Transoceanic
Sat 09:29:00 AM 54.0148 -29.6307 266° West 391 450 33,000  Level FlightAware Transoceanic
Sat 09:30:00 AM 54.0075 -29.8154 266° West 391 450 33,000 19 Level FlightAware Transoceanic
Sat 09:31:00 AM 53.9994 -30.0153 266° West  Level FlightAware Approximate
Sat 09:32:00 AM 53.9866 -30.2144 274° West  Level Estimated
Sat 09:33:00 AM 53.9948 -30.4142 274° West  Level FlightAware Approximate
Sat 09:34:00 AM 54.0028 -30.6141 274° West  Level FlightAware Approximate
Sat 09:35:00 AM 54.0103 -30.8141 274° West  Level FlightAware Approximate
Sat 09:36:00 AM 54.0176 -31.0142 274° West  Level FlightAware Approximate
Sat 09:37:00 AM 54.0245 -31.2143 273° West  Level FlightAware Approximate
Sat 09:38:00 AM 54.0311 -31.4144 273° West  Level FlightAware Approximate
Sat 09:39:00 AM 54.0373 -31.6147 273° West  Level FlightAware Approximate
Sat 09:40:00 AM 54.0432 -31.8150 273° West  Level FlightAware Approximate
Sat 09:41:00 AM 54.0488 -32.0153 273° West  Level FlightAware Approximate
Sat 09:42:00 AM 54.0541 -32.2157 273° West  Level FlightAware Approximate
Sat 09:43:00 AM 54.0590 -32.4162 272° West  Level FlightAware Approximate
Sat 09:44:00 AM 54.0636 -32.6167 272° West  Level FlightAware Approximate
Sat 09:45:00 AM 54.0678 -32.8172 272° West  Level FlightAware Approximate
Sat 09:46:00 AM 54.0718 -33.0178 272° West  Level FlightAware Approximate
Sat 09:47:00 AM 54.0753 -33.2184 272° West  Level FlightAware Approximate
Sat 09:48:00 AM 54.0786 -33.4191 272° West  Level FlightAware Approximate
Sat 09:49:00 AM 54.0815 -33.6197 272° West  Level FlightAware Approximate
Sat 09:50:00 AM 54.0841 -33.8204 271° West  Level FlightAware Approximate
Sat 09:51:00 AM 54.0863 -34.0212 271° West  Level FlightAware Approximate
Sat 09:52:00 AM 54.0882 -34.2219 271° West  Level FlightAware Approximate
Sat 09:53:00 AM 54.0898 -34.4227 271° West  Level FlightAware Approximate
Sat 09:54:00 AM 54.0911 -34.6235 271° West  Level FlightAware Approximate
Sat 09:55:00 AM 54.0920 -34.8243 271° West  Level FlightAware Approximate
Sat 09:56:00 AM 54.0926 -35.0251 270° West  Level FlightAware Approximate
Sat 09:57:00 AM 54.0928 -35.2259 270° West  Level FlightAware Approximate
Sat 09:58:00 AM 54.0927 -35.4267 270° West  Level FlightAware Approximate
Sat 09:59:00 AM 54.0923 -35.6275 270° West  Level FlightAware Approximate
Sat 10:00:00 AM 54.0915 -35.8283 270° West  Level FlightAware Approximate
Sat 10:01:00 AM 54.0905 -36.0290 270° West  Level FlightAware Approximate
Sat 10:02:00 AM 54.0890 -36.2298 269° West  Level FlightAware Approximate
Sat 10:03:00 AM 54.0873 -36.4306 269° West  Level FlightAware Approximate
Sat 10:04:00 AM 54.0852 -36.6313 269° West  Level FlightAware Approximate
Sat 10:05:00 AM 54.0827 -36.8320 269° West  Level FlightAware Approximate
Sat 10:06:00 AM 54.0800 -37.0327 269° West  Level FlightAware Approximate
Sat 10:07:00 AM 54.0769 -37.2334 269° West  Level FlightAware Approximate
Sat 10:08:00 AM 54.0734 -37.4340 268° West  Level FlightAware Approximate
Sat 10:09:00 AM 54.0697 -37.6346 268° West  Level FlightAware Approximate
Sat 10:10:00 AM 54.0656 -37.8352 268° West  Level FlightAware Approximate
Sat 10:11:00 AM 54.0611 -38.0357 268° West  Level FlightAware Approximate
Sat 10:12:00 AM 54.0564 -38.2362 268° West  Level FlightAware Approximate
Sat 10:13:00 AM 54.0513 -38.4366 268° West  Level FlightAware Approximate
Sat 10:14:00 AM 54.0458 -38.6370 267° West  Level FlightAware Approximate
Sat 10:15:00 AM 54.0401 -38.8373 267° West  Level FlightAware Approximate
Sat 10:16:00 AM 54.0340 -39.0376 267° West  Level FlightAware Approximate
Sat 10:17:00 AM 54.0275 -39.2378 267° West  Level FlightAware Approximate
Sat 10:18:00 AM 54.0208 -39.4379 267° West  Level FlightAware Approximate
Sat 10:19:00 AM 54.0137 -39.6380 267° West  Level FlightAware Approximate
Sat 10:20:00 AM 54.0063 -39.8380 266° West  Level FlightAware Approximate
Sat 10:21:00 AM 53.9985 -40.0379 266° West  Level FlightAware Approximate
Sat 10:22:00 AM 53.9653 -40.2300 256° West  Level Estimated
Sat 10:23:00 AM 53.9356 -40.4237 255° West  Level FlightAware Approximate
Sat 10:24:00 AM 53.9056 -40.6171 255° West  Level FlightAware Approximate
Sat 10:25:00 AM 53.8753 -40.8102 255° West  Level FlightAware Approximate
Sat 10:26:00 AM 53.8446 -41.0030 255° West  Level FlightAware Approximate
Sat 10:27:00 AM 53.8137 -41.1955 255° West  Level FlightAware Approximate
Sat 10:28:00 AM 53.7824 -41.3877 255° West  Level FlightAware Approximate
Sat 10:29:00 AM 53.7509 -41.5797 255° West  Level FlightAware Approximate
Sat 10:30:00 AM 53.7190 -41.7714 254° West  Level FlightAware Approximate
Sat 10:31:00 AM 53.6869 -41.9627 254° West  Level FlightAware Approximate
Sat 10:32:00 AM 53.6544 -42.1538 254° West  Level FlightAware Approximate
Sat 10:33:00 AM 53.6216 -42.3446 254° West  Level FlightAware Approximate
Sat 10:34:00 AM 53.5886 -42.5351 254° West  Level FlightAware Approximate
Sat 10:35:00 AM 53.5552 -42.7253 254° West  Level FlightAware Approximate
Sat 10:36:00 AM 53.5215 -42.9152 253° West  Level FlightAware Approximate
Sat 10:37:00 AM 53.4875 -43.1048 253° West  Level FlightAware Approximate
Sat 10:38:00 AM 53.4532 -43.2940 253° West  Level FlightAware Approximate
Sat 10:39:00 AM 53.4187 -43.4830 253° West  Level FlightAware Approximate
Sat 10:40:00 AM 53.3838 -43.6717 253° West  Level FlightAware Approximate
Sat 10:41:00 AM 53.3486 -43.8600 253° West  Level FlightAware Approximate
Sat 10:42:00 AM 53.3131 -44.0481 253° West  Level FlightAware Approximate
Sat 10:43:00 AM 53.2774 -44.2358 252° West  Level FlightAware Approximate
Sat 10:44:00 AM 53.2413 -44.4232 252° West  Level FlightAware Approximate
Sat 10:45:00 AM 53.2050 -44.6103 252° West  Level FlightAware Approximate
Sat 10:46:00 AM 53.1683 -44.7971 252° West  Level FlightAware Approximate
Sat 10:47:00 AM 53.1314 -44.9836 252° West  Level FlightAware Approximate
Sat 10:48:00 AM 53.0942 -45.1697 252° West  Level FlightAware Approximate
Sat 10:49:00 AM 53.0567 -45.3555 251° West  Level FlightAware Approximate
Sat 10:50:00 AM 53.0189 -45.5410 251° West  Level FlightAware Approximate
Sat 10:51:00 AM 52.9808 -45.7262 251° West  Level FlightAware Approximate
Sat 10:52:00 AM 52.9424 -45.9110 251° West  Level FlightAware Approximate
Sat 10:53:00 AM 52.9037 -46.0955 251° West  Level FlightAware Approximate
Sat 10:54:00 AM 52.8648 -46.2797 251° West  Level FlightAware Approximate
Sat 10:55:00 AM 52.8255 -46.4635 251° West  Level FlightAware Approximate
Sat 10:56:00 AM 52.7860 -46.6470 250° West  Level FlightAware Approximate
Sat 10:57:00 AM 52.7462 -46.8302 250° West  Level FlightAware Approximate
Sat 10:58:00 AM 52.7061 -47.0131 250° West  Level FlightAware Approximate
Sat 10:59:00 AM 52.6658 -47.1956 250° West  Level FlightAware Approximate
Sat 11:00:00 AM 52.6251 -47.3777 250° West  Level FlightAware Approximate
Sat 11:01:00 AM 52.5842 -47.5596 250° West  Level FlightAware Approximate
Sat 11:02:00 AM 52.5430 -47.7411 250° West  Level FlightAware Approximate
Sat 11:03:00 AM 52.5015 -47.9222 249° West  Level FlightAware Approximate
Sat 11:04:00 AM 52.4598 -48.1030 249° West  Level FlightAware Approximate
Sat 11:05:00 AM 52.4177 -48.2835 249° West  Level FlightAware Approximate
Sat 11:06:00 AM 52.3754 -48.4636 249° West  Level FlightAware Approximate
Sat 11:07:00 AM 52.3329 -48.6433 249° West  Level FlightAware Approximate
Sat 11:08:00 AM 52.2900 -48.8228 249° West  Level FlightAware Approximate
Sat 11:09:00 AM 52.2469 -49.0019 249° West  Level FlightAware Approximate
Sat 11:10:00 AM 52.2035 -49.1806 248° West  Level FlightAware Approximate
Sat 11:11:00 AM 52.1599 -49.3590 248° West  Level FlightAware Approximate
Sat 11:12:00 AM 52.1159 -49.5370 248° West  Level FlightAware Approximate
Sat 11:13:00 AM 52.0717 -49.7146 248° West  Level FlightAware Approximate
Sat 11:14:00 AM 52.0273 -49.8920 248° West  Level FlightAware Approximate
Sat 11:15:00 AM 51.9825 -50.0689 248° West  Level FlightAware Approximate
Sat 11:16:00 AM 51.9329 -50.2418 248° West  Level Estimated
Sat 11:17:00 AM 51.8898 -50.4190 249° West  Level FlightAware Approximate
Sat 11:17:50 AM 51.8667 -50.5833 248° West 440 506 35,100  Level Gander Center
Sat 11:18:00 AM 51.8465 -50.5958 248° West  Level FlightAware Approximate
Sat 11:18:50 AM 51.8000 -50.7667 240° Southwest 440 506 35,100  Level Gander Center
Sat 11:19:00 AM 51.8028 -50.7723 248° West  Level FlightAware Approximate
Sat 11:19:50 AM 51.7500 -50.9333 244° Southwest 440 506 35,100  Level Gander Center
Sat 11:20:00 AM 51.7589 -50.9484 248° West  Level FlightAware Approximate
Sat 11:20:50 AM 51.7000 -51.1333 248° West 440 506 35,100  Level Gander Center
Sat 11:21:00 AM 51.7148 -51.1242 248° West  Level FlightAware Approximate
Sat 11:21:50 AM 51.6667 -51.3167 254° West 430 495 35,100  Level Gander Center
Sat 11:22:00 AM 51.6634 -51.2947 248° West  Level Estimated
Sat 11:22:44 AM 51.6167 -51.4667 242° Southwest 440 506 35,100  Level Moncton Center
Sat 11:23:00 AM 51.6201 -51.4707 248° West  Level FlightAware Approximate
Sat 11:23:44 AM 51.5667 -51.6500 246° West 440 506 35,100  Level Moncton Center
Sat 11:24:44 AM 51.5333 -51.8167 252° West 440 506 35,100  Level Moncton Center
Sat 11:25:44 AM 51.4833 -52.0000 246° West 440 506 35,100 238 Level Moncton Center
Sat 11:26:25 AM 51.4333 -52.1167 236° Southwest 440 506 35,500 594 Climbing Gander Center
Sat 11:27:25 AM 51.3833 -52.2833 244° Southwest 440 506 36,100 300 Climbing Gander Center
Sat 11:28:25 AM 51.3167 -52.4667 240° Southwest 450 518 36,100  Level Gander Center
Sat 11:29:25 AM 51.2333 -52.6167 228° Southwest 440 506 36,100  Level Gander Center
Sat 11:30:25 AM 51.1667 -52.7833 238° Southwest 440 506 36,100  Level Gander Center
Sat 11:31:25 AM 51.1167 -52.9667 247° West 440 506 36,100  Level Gander Center
Sat 11:32:25 AM 51.0333 -53.1000 225° Southwest 440 506 36,100  Level Gander Center
Sat 11:33:25 AM 50.9833 -53.2833 247° West 440 506 36,100  Level Gander Center
Sat 11:34:25 AM 50.9167 -53.4500 238° Southwest 440 506 36,100  Level Gander Center
Sat 11:35:25 AM 50.8333 -53.6000 229° Southwest 440 506 36,100  Level Gander Center
Sat 11:36:25 AM 50.7833 -53.7667 245° Southwest 450 518 36,100  Level Gander Center
Sat 11:37:44 AM 50.6667 -53.9667 227° Southwest 450 518 36,100  Level Moncton Center
Sat 11:38:44 AM 50.6000 -54.1500 240° Southwest 450 518 36,100  Level Moncton Center
Sat 11:39:44 AM 50.5333 -54.3167 238° Southwest 450 518 36,100  Level Moncton Center
Sat 11:40:44 AM 50.4667 -54.4667 235° Southwest 460 529 36,100  Level Moncton Center
Sat 11:41:44 AM 50.4000 -54.6333 238° Southwest 450 518 36,100  Level Moncton Center
Sat 11:42:44 AM 50.3167 -54.7833 229° Southwest 450 518 36,100  Level Moncton Center
Sat 11:43:44 AM 50.2500 -54.9500 238° Southwest 450 518 36,100  Level Moncton Center
Sat 11:44:25 AM 50.2000 -55.0667 236° Southwest 450 518 36,100  Level Gander Center
Sat 11:45:25 AM 50.1333 -55.2333 238° Southwest 450 518 36,100  Level Gander Center
Sat 11:46:25 AM 50.0500 -55.4000 232° Southwest 450 518 36,100  Level Gander Center
Sat 11:47:25 AM 50.0000 -55.5500 243° Southwest 450 518 36,100  Level Gander Center
Sat 11:48:25 AM 49.9167 -55.7167 232° Southwest 450 518 36,100  Level Gander Center
Sat 11:49:44 AM 49.8167 -55.9000 230° Southwest 450 518 36,100  Level Moncton Center
Sat 11:50:25 AM 49.7667 -56.0333 240° Southwest 440 506 36,100  Level Gander Center
Sat 11:51:25 AM 49.7000 -56.1667 232° Southwest 440 506 36,100  Level Gander Center
Sat 11:52:44 AM 49.6000 -56.3833 235° Southwest 440 506 36,100  Level Moncton Center
Sat 11:53:44 AM 49.5333 -56.5500 238° Southwest 440 506 36,100  Level Moncton Center
Sat 11:54:44 AM 49.4667 -56.6833 232° Southwest 440 506 36,100  Level Moncton Center
Sat 11:55:44 AM 49.3833 -56.8500 233° Southwest 440 506 36,100  Level Moncton Center
Sat 11:56:44 AM 49.3167 -57.0000 236° Southwest 450 518 36,100  Level Moncton Center
Sat 11:57:44 AM 49.2500 -57.1500 236° Southwest 450 518 36,100  Level Moncton Center
Sat 11:58:44 AM 49.1667 -57.3000 230° Southwest 450 518 36,100 -50 Level Moncton Center
Sat 11:59:44 AM 49.1000 -57.4667 239° Southwest 450 518 36,000  Descending Moncton Center
Sat 12:00:44 PM 49.0167 -57.6000 226° Southwest 450 518 36,100 50 Climbing Moncton Center
Sat 12:01:44 PM 48.9500 -57.7667 239° Southwest 450 518 36,100  Level Moncton Center
Sat 12:02:44 PM 48.8667 -57.9000 226° Southwest 450 518 36,100  Level Moncton Center
Sat 12:03:44 PM 48.8000 -58.0667 239° Southwest 440 506 36,100  Level Moncton Center
Sat 12:04:44 PM 48.7167 -58.2333 233° Southwest 450 518 36,100  Level Moncton Center
Sat 12:05:44 PM 48.6500 -58.3667 233° Southwest 440 506 36,100  Level Moncton Center
Sat 12:06:44 PM 48.5667 -58.5000 227° Southwest 440 506 36,100  Level Moncton Center
Sat 12:07:44 PM 48.5000 -58.6667 239° Southwest 460 529 36,100  Level Moncton Center
Sat 12:08:44 PM 48.4167 -58.8167 230° Southwest 450 518 36,100  Level Moncton Center
Sat 12:09:44 PM 48.3333 -58.9500 227° Southwest 450 518 36,100  Level Moncton Center
Sat 12:10:44 PM 48.2667 -59.1167 239° Southwest 450 518 36,100  Level Moncton Center
Sat 12:11:44 PM 48.1833 -59.2500 227° Southwest 450 518 36,100  Level Moncton Center
Sat 12:12:44 PM 48.1167 -59.4000 236° Southwest 450 518 36,100  Level Moncton Center
Sat 12:13:44 PM 48.0333 -59.5667 233° Southwest 450 518 36,100  Level Moncton Center
Sat 12:14:44 PM 47.9500 -59.7000 227° Southwest 450 518 36,100  Level Moncton Center
Sat 12:20:21 PM 47.5094 -60.5664 232° Southwest 454 522 36,100  Level FlightAware ADS-B (CYQY)
Sat 12:21:27 PM 47.4227 -60.7255 232° Southwest 455 524 36,100  Level FlightAware ADS-B (CYQY)
Sat 12:21:56 PM 47.3840 -60.7961 232° Southwest 455 524 36,100  Level FlightAware ADS-B (CYQY)
Sat 12:22:21 PM 47.3557 -60.8478 232° Southwest 456 525 36,100  Level FlightAware ADS-B (CYQY)
Sat 12:22:58 PM 47.3014 -60.9461 232° Southwest 457 526 36,100  Level FlightAware ADS-B (CYQY)
Sat 12:23:30 PM 47.2589 -61.0233 231° Southwest 458 527 36,100  Level FlightAware ADS-B (CYQY)
Sat 12:23:57 PM 47.2345 -61.0674 231° Southwest 459 528 36,100  Level FlightAware ADS-B (CYQY)
Sat 12:24:29 PM 47.1882 -61.1507 231° Southwest 459 528 36,100  Level FlightAware ADS-B (CYQY)
Sat 12:24:46 PM 47.1647 -61.1933 231° Southwest 460 529 36,100  Level FlightAware ADS-B (CYQY)
Sat 12:25:32 PM 47.0945 -61.3188 231° Southwest 461 531 36,100  Level FlightAware ADS-B (CYQY)
Sat 12:26:01 PM 47.0569 -61.3860 231° Southwest 461 531 36,100  Level FlightAware ADS-B (CYQY)
Sat 12:26:27 PM 47.0217 -61.4488 231° Southwest 462 532 36,100  Level FlightAware ADS-B (CYQY)
Sat 12:27:02 PM 46.9727 -61.5356 231° Southwest 463 533 36,100  Level FlightAware ADS-B (CYQY)
Sat 12:27:32 PM 46.9322 -61.6073 231° Southwest 463 533 36,100  Level FlightAware ADS-B (CYQY)
Sat 12:28:00 PM 46.8946 -61.6738 231° Southwest 463 533 36,100  Level FlightAware ADS-B (CYQY)
Sat 12:28:31 PM 46.8545 -61.7445 231° Southwest 463 533 36,100  Level FlightAware ADS-B (CYQY)
Sat 12:29:00 PM 46.8121 -61.8189 231° Southwest 462 532 36,100  Level FlightAware ADS-B (CYQY)
Sat 12:29:30 PM 46.7736 -61.8865 231° Southwest 462 532 36,100  Level FlightAware ADS-B (CYQY)
Sat 12:29:59 PM 46.7338 -61.9559 231° Southwest 463 533 36,100  Level FlightAware ADS-B (CYQY)
Sat 12:30:31 PM 46.6879 -62.0357 231° Southwest 463 533 36,100  Level FlightAware ADS-B (CYQY)
Sat 12:31:00 PM 46.6467 -62.1072 230° Southwest 463 533 36,100  Level FlightAware ADS-B (CYQY)
Sat 12:31:29 PM 46.6081 -62.1744 230° Southwest 463 533 36,100  Level FlightAware ADS-B (CYQY)
Sat 12:32:02 PM 46.5638 -62.2509 230° Southwest 462 532 36,100  Level FlightAware ADS-B (CYQY)
Sat 12:32:59 PM 46.4849 -62.3867 230° Southwest 461 531 36,100  Level FlightAware ADS-B (CYQY)
Sat 12:34:13 PM 46.3826 -62.5614 230° Southwest 461 531 36,100  Level FlightAware ADS-B (CYQY)
Sat 12:34:47 PM 46.3390 -62.6356 230° Southwest 461 531 36,100  Level FlightAware ADS-B (CYQY)
Sat 12:35:57 PM 46.2380 -62.8064 230° Southwest 464 534 36,100  Level FlightAware ADS-B (CYQY)
Sat 12:36:44 PM 46.1667 -62.9000 230° Southwest 460 529 36,100  Level Moncton Center
Sat 12:41:58 PM 45.7371 -63.6381 229° Southwest 462 532 36,100  Level FlightAware ADS-B
Sat 12:42:45 PM 45.6676 -63.7513 229° Southwest 461 531 36,100  Level FlightAware ADS-B
Sat 12:43:16 PM 45.6300 -63.8125 229° Southwest 460 529 36,100  Level FlightAware ADS-B (CYQY)
Sat 12:44:05 PM 45.5541 -63.9353 229° Southwest 460 529 36,100  Level FlightAware ADS-B
Sat 12:44:45 PM 45.4982 -64.0258 229° Southwest 459 528 36,100  Level FlightAware ADS-B
Sat 12:45:25 PM 45.4470 -64.1080 229° Southwest 459 528 36,100  Level FlightAware ADS-B
Sat 12:46:05 PM 45.3909 -64.1978 228° Southwest 459 528 36,100  Level FlightAware ADS-B
Sat 12:46:45 PM 45.3366 -64.2846 228° Southwest 459 528 36,100  Level FlightAware ADS-B
Sat 12:47:25 PM 45.2734 -64.3848 228° Southwest 458 527 36,100  Level FlightAware ADS-B
Sat 12:48:05 PM 45.2168 -64.4748 228° Southwest 459 528 36,100  Level FlightAware ADS-B
Sat 12:48:45 PM 45.1705 -64.5480 228° Southwest 459 528 36,100  Level FlightAware ADS-B
Sat 12:49:25 PM 45.1049 -64.6515 228° Southwest 460 529 36,100  Level FlightAware ADS-B
Sat 12:50:05 PM 45.0457 -64.7445 228° Southwest 459 528 36,100  Level FlightAware ADS-B
Sat 12:50:45 PM 44.9906 -64.8307 228° Southwest 459 528 36,100  Level FlightAware ADS-B
Sat 12:51:25 PM 44.9324 -64.9215 228° Southwest 459 528 36,100  Level FlightAware ADS-B
Sat 12:52:05 PM 44.8766 -65.0081 228° Southwest 458 527 36,100  Level FlightAware ADS-B
Sat 12:52:44 PM 44.8196 -65.0965 228° Southwest 457 526 36,100  Level FlightAware ADS-B
Sat 12:53:25 PM 44.7629 -65.1843 228° Southwest 457 526 36,100  Level FlightAware ADS-B
Sat 12:54:05 PM 44.7070 -65.2703 228° Southwest 456 525 36,100  Level FlightAware ADS-B
Sat 12:54:45 PM 44.6493 -65.3588 228° Southwest 455 524 36,100  Level FlightAware ADS-B
Sat 12:55:25 PM 44.5942 -65.4432 228° Southwest 456 525 36,100  Level FlightAware ADS-B
Sat 12:56:05 PM 44.5353 -65.5329 228° Southwest 454 522 36,100  Level FlightAware ADS-B
Sat 12:56:45 PM 44.4792 -65.6184 227° Southwest 454 522 36,100  Level FlightAware ADS-B
Sat 12:57:25 PM 44.4253 -65.7001 227° Southwest 453 521 36,100  Level FlightAware ADS-B
Sat 12:58:05 PM 44.3666 -65.7889 227° Southwest 452 520 36,100  Level FlightAware ADS-B
Sat 12:58:44 PM 44.3104 -65.8735 227° Southwest 452 520 36,100  Level FlightAware ADS-B
Sat 12:59:25 PM 44.2519 -65.9612 227° Southwest 452 520 36,100  Level FlightAware ADS-B
Sat 01:00:05 PM 44.2143 -66.0179 227° Southwest 451 519 36,100  Level FlightAware ADS-B
Sat 01:00:46 PM 44.1379 -66.1319 227° Southwest 451 519 36,100  Level FlightAware ADS-B
Sat 01:01:26 PM 44.0818 -66.2156 227° Southwest 450 518 36,100  Level FlightAware ADS-B
Sat 01:02:06 PM 44.0301 -66.2923 227° Southwest 450 518 36,100  Level FlightAware ADS-B
Sat 01:02:46 PM 43.9670 -66.3859 227° Southwest 451 519 36,100  Level FlightAware ADS-B
Sat 01:03:26 PM 43.9185 -66.4573 227° Southwest 451 519 36,100  Level FlightAware ADS-B
Sat 01:04:06 PM 43.8526 -66.5545 227° Southwest 451 519 36,100  Level FlightAware ADS-B
Sat 01:04:45 PM 43.8039 -66.6261 227° Southwest 451 519 36,100  Level FlightAware ADS-B
Sat 01:05:16 PM 43.7532 -66.7000 227° Southwest 451 519 36,100  Level FlightAware ADS-B (EPKK / KRK)
Sat 01:05:46 PM 43.7089 -66.7649 227° Southwest 451 519 36,100  Level FlightAware ADS-B
Sat 01:06:26 PM 43.6537 -66.8455 227° Southwest 451 519 36,100  Level FlightAware ADS-B
Sat 01:07:06 PM 43.5948 -66.9309 227° Southwest 451 519 36,100  Level FlightAware ADS-B
Sat 01:07:46 PM 43.5486 -67.0063 239° Southwest 443 510 36,100  Level FlightAware ADS-B
Sat 01:08:25 PM 43.5117 -67.1153 248° West 438 504 36,100  Level FlightAware ADS-B
Sat 01:09:06 PM 43.4827 -67.2171 249° West 437 503 36,100  Level FlightAware ADS-B
Sat 01:09:56 PM 43.4475 -67.3410 249° West 437 503 36,100  Level FlightAware ADS-B
Sat 01:10:36 PM 43.4144 -67.4566 249° West 436 502 36,100  Level FlightAware ADS-B
Sat 01:11:56 PM 43.3567 -67.6566 248° West 436 502 36,100  Level FlightAware ADS-B
Sat 01:12:35 PM 43.3292 -67.7513 248° West 436 502 36,100  Level FlightAware ADS-B
Sat 01:13:13 PM 43.3007 -67.8491 248° West 435 501 36,100  Level FlightAware ADS-B
Sat 01:14:46 PM 43.2278 -68.0984 248° West 433 498 36,100  Level FlightAware ADS-B (EPKK / KRK)
Sat 01:15:39 PM 43.1881 -68.2326 248° West 433 498 36,100  Level FlightAware ADS-B (EPKK / KRK)
Sat 01:16:20 PM 43.1582 -68.3334 248° West 433 498 36,100  Level FlightAware ADS-B (EPKK / KRK)
Sat 01:17:48 PM 43.0918 -68.5574 248° West 433 498 36,100  Level FlightAware ADS-B (EPKK / KRK)
Sat 01:18:49 PM 43.0462 -68.7109 248° West 432 497 36,100  Level FlightAware ADS-B (EPKK / KRK)
Sat 01:19:57 PM 42.9952 -68.8803 248° West 430 495 36,100  Level FlightAware ADS-B (EPKK / KRK)
Sat 01:20:59 PM 42.9483 -69.0351 248° West 429 494 36,100  Level FlightAware ADS-B (EPKK / KRK)
Sat 01:21:39 PM 42.9176 -69.1370 248° West 429 494 36,100  Level FlightAware ADS-B (EPKK / KRK)
Sat 01:22:20 PM 42.8869 -69.2379 248° West 428 493 36,100  Level FlightAware ADS-B (EPKK / KRK)
Sat 01:23:01 PM 42.8552 -69.3413 247° West 427 491 36,100  Level FlightAware ADS-B (EPKK / KRK)
Sat 01:23:45 PM 42.8233 -69.4454 247° West 426 490 36,100  Level FlightAware ADS-B (EPKK / KRK)
Sat 01:24:18 PM 42.7967 -69.5323 247° West 425 489 36,100  Level FlightAware ADS-B (KASH)
Sat 01:24:50 PM 42.7729 -69.6101 247° West 425 489 36,100 -82 Level FlightAware ADS-B (KASH)
Sat 01:25:31 PM 42.7420 -69.7101 247° West 424 488 36,000 -667 Descending FlightAware ADS-B (EPKK / KRK)
Sat 01:26:02 PM 42.7201 -69.7804 247° West 429 494 35,300 -1,475 Descending FlightAware ADS-B (EPKK / KRK)
Sat 01:26:32 PM 42.6947 -69.8626 247° West 434 499 34,500 -1,543 Descending FlightAware ADS-B (EPKK / KRK)
Sat 01:27:12 PM 42.6638 -69.9616 247° West 441 507 33,500 -1,541 Descending FlightAware ADS-B (EPKK / KRK)
Sat 01:27:46 PM 42.6361 -70.0505 248° West 442 509 32,600 -1,590 Descending FlightAware ADS-B (KASH)
Sat 01:28:35 PM 42.5976 -70.1733 247° West 443 510 31,300 -1,875 Descending FlightAware ADS-B (EPKK / KRK)
Sat 01:29:06 PM 42.5727 -70.2524 247° West 438 504 30,100 -2,250 Descending FlightAware ADS-B (EPKK / KRK)
Sat 01:29:39 PM 42.5466 -70.3348 247° West 432 497 28,900 -1,644 Descending FlightAware ADS-B (EPKK / KRK)
Sat 01:30:19 PM 42.5171 -70.4287 247° West 423 487 28,100 -585 Descending FlightAware ADS-B (EPKK / KRK)
Sat 01:31:01 PM 42.4829 -70.5367 247° West 424 488 28,100 -234 Level FlightAware ADS-B (EPKK / KRK)
Sat 01:31:36 PM 42.4555 -70.6222 248° West 428 493 27,800 -800 Descending FlightAware ADS-B (KASH)
Sat 01:32:46 PM 42.4021 -70.7893 247° West 417 480 26,700 -941 Descending FlightAware ADS-B (EPKK / KRK)
Sat 01:33:18 PM 42.3777 -70.8658 247° West 410 472 26,200 -1,000 Descending FlightAware ADS-B (KBED)
Sat 01:33:52 PM 42.3549 -70.9365 247° West 409 471 25,600 -1,075 Descending FlightAware ADS-B (KBED)
Sat 01:34:25 PM 42.3290 -71.0232 251° West 409 471 25,000 -1,015 Descending FlightAware ADS-B (KBED)
Sat 01:34:57 PM 42.3092 -71.1047 253° West 405 466 24,500 -938 Descending FlightAware ADS-B (KBED)
Sat 01:35:29 PM 42.2917 -71.1794 253° West 400 460 24,000 -941 Descending FlightAware ADS-B (KBED)
Sat 01:35:48 PM 42.2817 -71.2226 253° West 398 458 23,700 -1,038 Descending FlightAware ADS-B (EPKK / KRK)
Sat 01:36:21 PM 42.2632 -71.3021 254° West 392 451 23,100 -1,048 Descending FlightAware ADS-B (KASH)
Sat 01:36:51 PM 42.2464 -71.3739 252° West 389 448 22,600 -1,043 Descending FlightAware ADS-B (KASH)
Sat 01:37:07 PM 42.2381 -71.4084 252° West 388 447 22,300 -894 Descending FlightAware ADS-B (EPKK / KRK)
Sat 01:37:38 PM 42.2212 -71.4801 253° West 387 445 21,900 -800 Descending FlightAware ADS-B (KBED)
Sat 01:38:07 PM 42.2054 -71.5465 253° West 383 441 21,500 -800 Descending FlightAware ADS-B (KBED)
Sat 01:38:38 PM 42.1887 -71.6166 252° West 384 442 21,100 -787 Descending FlightAware ADS-B (KASH)
Sat 01:39:08 PM 42.1722 -71.6863 252° West 383 441 20,700 -727 Descending FlightAware ADS-B (KASH)
Sat 01:39:44 PM 42.1532 -71.7657 253° West 380 437 20,300 -737 Descending FlightAware ADS-B (KBED)
Sat 01:40:05 PM 42.1413 -71.8151 252° West 377 434 20,000 -831 Descending FlightAware ADS-B (KASH)
Sat 01:40:49 PM 42.1186 -71.9098 253° West 373 429 19,400 -787 Descending FlightAware ADS-B (KBED)
Sat 01:41:06 PM 42.1101 -71.9448 252° West 374 430 19,200 -857 Descending FlightAware ADS-B (KSNC)
Sat 01:41:45 PM 42.0941 -72.0115 252° West 372 428 18,600 -786 Descending FlightAware ADS-B (KSNC)
Sat 01:42:30 PM 42.0653 -72.1302 252° West 369 425 18,100 -750 Descending FlightAware ADS-B (KSNC)
Sat 01:43:37 PM 42.0291 -72.2785 252° West 368 423 17,200 -800 Descending FlightAware ADS-B (KSNC)
Sat 01:44:15 PM 42.0100 -72.3560 252° West 374 430 16,700 -771 Descending FlightAware ADS-B (KSNC)
Sat 01:44:47 PM 41.9913 -72.4320 252° West 372 428 16,300 -750 Descending FlightAware ADS-B (KSNC)
Sat 01:45:19 PM 41.9740 -72.5025 252° West 371 427 15,900 -441 Descending FlightAware ADS-B (KSNC)
Sat 01:45:55 PM 41.9575 -72.5690 252° West 367 422 15,800 -75 Descending FlightAware ADS-B (KSNC)
Sat 01:46:39 PM 41.9309 -72.6758 252° West 369 425 15,800  Level FlightAware ADS-B (KSNC)
Sat 01:47:49 PM 41.9008 -72.8024 253° West 368 423 15,800  Level FlightAware ADS-B (KFRG)
Sat 01:48:19 PM 41.8811 -72.8881 253° West 366 421 15,800  Level FlightAware ADS-B (KFRG)
Sat 01:48:50 PM 41.8646 -72.9585 253° West 369 425 15,800  Level FlightAware ADS-B (KFRG)
Sat 01:49:19 PM 41.8511 -73.0156 253° West 369 425 15,800  Level FlightAware ADS-B (KFRG)
Sat 01:49:49 PM 41.8347 -73.0841 253° West 368 423 15,800  Level FlightAware ADS-B (KFRG)
Sat 01:50:05 PM 41.8256 -73.1224 252° West 368 423 15,800  Level FlightAware ADS-B (KSNC)
Sat 01:50:42 PM 41.8064 -73.2031 252° West 368 423 15,800 -57 Level FlightAware ADS-B (KSNC)
Sat 01:51:51 PM 41.7702 -73.3545 252° West 367 422 15,700 -850 Descending FlightAware ADS-B (KSNC)
Sat 01:52:42 PM 41.7441 -73.4625 252° West 358 412 14,100 -1,979 Descending FlightAware ADS-B (KSNC)
Sat 01:53:25 PM 41.7199 -73.5492 243° Southwest 352 405 12,600 -2,055 Descending FlightAware ADS-B (KSNC)
Sat 01:53:55 PM 41.6945 -73.6060 238° Southwest 351 404 11,600 -1,886 Descending FlightAware ADS-B (KSNC)
Sat 01:54:35 PM 41.6608 -73.6755 237° Southwest 333 383 10,400 -1,478 Descending FlightAware ADS-B (KFRG)
Sat 01:55:04 PM 41.6368 -73.7248 238° Southwest 314 361 9,900 -955 Descending FlightAware ADS-B (KFRG)
Sat 01:55:19 PM 41.6246 -73.7502 237° Southwest 306 352 9,700 -857 Descending FlightAware ADS-B (KFRG)
Sat 01:56:14 PM 41.5850 -73.8314 237° Southwest 279 321 8,900 -986 Descending FlightAware ADS-B (KLGA)
Sat 01:56:32 PM 41.5724 -73.8571 238° Southwest 277 319 8,500 -1,412 Descending FlightAware ADS-B (KLGA)
Sat 01:56:48 PM 41.5608 -73.8810 237° Southwest 276 318 8,100 -1,548 Descending FlightAware ADS-B (KLGA)
Sat 01:57:03 PM 41.5505 -73.9021 237° Southwest 275 316 7,700 -1,333 Descending FlightAware ADS-B (KLGA)
Sat 01:57:24 PM 41.5366 -73.9306 237° Southwest 270 311 7,300 -1,080 Descending FlightAware ADS-B (KLGA)
Sat 01:57:53 PM 41.5185 -73.9671 237° Southwest 262 302 6,800 -720 Descending FlightAware ADS-B (KLGA)
Sat 01:58:14 PM 41.5034 -73.9981 237° Southwest 259 298 6,700  Descending FlightAware ADS-B (KLGA)
Sat 01:58:33 PM 41.4906 -74.0214 229° Southwest 264 304 6,800 171 Climbing FlightAware ADS-B (KLGA)
Sat 01:58:49 PM 41.4763 -74.0408 223° Southwest 266 306 6,800 -167 Level FlightAware ADS-B (KLGA)
Sat 01:59:09 PM 41.4571 -74.0641 223° Southwest 267 307 6,700 -154 Descending FlightAware ADS-B (KLGA)
Sat 01:59:28 PM 41.4394 -74.0852 223° Southwest 265 305 6,700  Level FlightAware ADS-B (KLGA)
Sat 01:59:48 PM 41.4205 -74.1079 223° Southwest 264 304 6,700  Level FlightAware ADS-B (KLGA)
Sat 02:00:18 PM 41.3932 -74.1407 223° Southwest 264 304 6,700  Level FlightAware ADS-B (KLGA)
Sat 02:00:38 PM 41.3748 -74.1627 223° Southwest 265 305 6,700  Level FlightAware ADS-B (KLGA)
Sat 02:00:56 PM 41.3599 -74.1807 223° Southwest 265 305 6,700  Level FlightAware ADS-B (KLGA)
Sat 02:01:17 PM 41.3398 -74.2047 223° Southwest 266 306 6,700  Level FlightAware ADS-B (KLGA)
Sat 02:01:42 PM 41.3193 -74.2277 209° Southwest 267 307 6,700 -429 Level FlightAware ADS-B (KLGA)
Sat 02:01:59 PM 41.2971 -74.2387 187° South 273 314 6,400 -1,029 Descending FlightAware ADS-B (KLGA)
Sat 02:02:17 PM 41.2734 -74.2357 165° South 276 318 6,100 -1,200 Descending FlightAware ADS-B (KLGA)
Sat 02:02:39 PM 41.2471 -74.2252 162° South 276 318 5,600 -522 Descending FlightAware ADS-B (KLGA)
Sat 02:06:53 PM 40.9547 -74.1060 162° South 276 318 3,700 -536 Descending FlightAware ADS-B (KLGA)
Sat 02:07:19 PM 40.9253 -74.0959 169° South 228 262 3,100 -1,171 Descending FlightAware ADS-B (KLGA)
Sat 02:07:34 PM 40.9107 -74.0937 175° South 225 259 2,900 -686 Descending FlightAware ADS-B (KLGA)
Sat 02:07:54 PM 40.8887 -74.0914 175° South 223 257 2,700 -162 Descending FlightAware ADS-B (KLGA)
Sat 02:08:11 PM 40.8757 -74.0903 175° South 212 244 2,800 150 Climbing FlightAware ADS-B (KLGA)
Sat 02:08:34 PM 40.8564 -74.0882 174° South 216 249 2,800 -261 Level FlightAware ADS-B (KLGA)
Sat 02:08:57 PM 40.8266 -74.0848 175° South 203 234 2,600 -500 Descending FlightAware ADS-B (KLGA)
Sat 02:09:34 PM 40.8000 -74.1000 175° South 203 234 2,300 -742 Descending New York TRACON
Sat 02:10:34 PM 40.7500 -74.1333 207° Southwest 183 211 1,400 -900 Descending New York TRACON
Sat 02:11:34 PM 40.7167 -74.1500 201° Southwest 138 159 500 -900 Descending New York TRACON

Login

Don't have an account? Register now (free) for customized features, flight alerts, and more!